Time;durP1;ratioP1;P1;durP2;ratioP2;P2;SDS_P1;SDS_P2;PMS_P1;PMS_P2;Temp;Humidity;BMP_temperature;BMP_pressure;BME280_temperature;BME280_humidity;BME280_pressure;Samples;Min_cycle;Max_cycle;Signal;HPM_P1;HPM_P2
2021/12/15 00:01:49;;;;;;;14.32;6.55;;;9.80;99.90;;;;;;5092010;28;20048;-78
2021/12/15 00:04:15;;;;;;;9.85;6.13;;;9.70;99.90;;;;;;5088714;28;20048;-77
2021/12/15 00:06:41;;;;;;;11.30;6.45;;;9.70;99.90;;;;;;5091812;28;20056;-77
2021/12/15 00:09:10;;;;;;;8.27;5.25;;;9.80;99.90;;;;;;5088828;28;20082;-77
2021/12/15 00:11:37;;;;;;;7.57;5.65;;;9.80;99.90;;;;;;5078337;28;20048;-77
2021/12/15 00:14:09;;;;;;;13.75;7.45;;;9.80;99.90;;;;;;5089275;28;20424;-77
2021/12/15 00:16:35;;;;;;;10.25;6.03;;;9.80;99.90;;;;;;5083279;28;20048;-78
2021/12/15 00:19:02;;;;;;;;;;;9.80;99.90;;;;;;5090508;28;20126;-78
2021/12/15 00:21:28;;;;;;;15.85;6.72;;;9.80;99.90;;;;;;5074505;28;19916;-77
2021/12/15 00:23:54;;;;;;;12.52;7.05;;;9.80;99.90;;;;;;5072986;28;20040;-78
2021/12/15 00:26:20;;;;;;;;;;;9.80;99.90;;;;;;5087433;28;20044;-78
2021/12/15 00:28:46;;;;;;;15.15;6.93;;;9.80;99.90;;;;;;5060964;28;19920;-78
2021/12/15 00:31:13;;;;;;;12.35;8.05;;;9.90;99.90;;;;;;5084585;28;20043;-77
2021/12/15 00:33:39;;;;;;;17.35;6.47;;;9.80;99.90;;;;;;5089290;28;20060;-78
2021/12/15 00:36:06;;;;;;;11.77;6.60;;;9.80;99.90;;;;;;5076026;28;20534;-77
2021/12/15 00:38:31;;;;;;;;;;;9.80;99.90;;;;;;5078260;28;20501;-78
2021/12/15 00:40:57;;;;;;;17.70;6.90;;;9.80;99.90;;;;;;5086254;28;19922;-77
2021/12/15 00:43:26;;;;;;;10.20;5.65;;;9.80;99.90;;;;;;5079494;28;20040;-78
2021/12/15 00:45:51;;;;;;;14.10;6.63;;;9.80;99.90;;;;;;5069407;28;20482;-78
2021/12/15 00:48:18;;;;;;;13.93;5.43;;;9.80;99.90;;;;;;5088190;28;20067;-77
2021/12/15 00:50:47;;;;;;;11.77;5.65;;;9.80;99.90;;;;;;5086601;28;20072;-76
2021/12/15 00:53:14;;;;;;;12.38;8.43;;;9.80;99.90;;;;;;5072012;28;20043;-77
2021/12/15 00:55:42;;;;;;;10.45;6.72;;;9.80;99.90;;;;;;5063677;28;20316;-77
2021/12/15 00:58:08;;;;;;;10.05;4.68;;;9.80;99.90;;;;;;5059507;28;20102;-77
2021/12/15 01:00:46;;;;;;;13.18;7.40;;;9.80;99.90;;;;;;5089924;28;20170;-77
2021/12/15 01:03:13;;;;;;;9.90;6.00;;;9.80;99.90;;;;;;5083707;28;20048;-77
2021/12/15 01:05:44;;;;;;;11.05;6.25;;;9.80;99.90;;;;;;5077460;28;20041;-77
2021/12/15 01:08:19;;;;;;;11.88;5.72;;;9.80;99.90;;;;;;5082404;28;20197;-76
2021/12/15 01:21:43;;;;;;;7.30;4.72;;;9.80;99.90;;;;;;5089540;28;20090;-77
2021/12/15 01:24:09;;;;;;;11.07;5.35;;;9.90;99.90;;;;;;5077641;28;20093;-77
2021/12/15 01:26:35;;;;;;;18.47;7.20;;;9.90;99.90;;;;;;5087376;28;20048;-76
2021/12/15 01:29:01;;;;;;;15.27;6.38;;;9.90;99.90;;;;;;5073580;28;20091;-80
2021/12/15 01:31:27;;;;;;;10.07;5.20;;;9.90;99.90;;;;;;5088252;28;20405;-78
2021/12/15 01:33:53;;;;;;;17.92;6.72;;;9.90;99.90;;;;;;5090596;28;20040;-77
2021/12/15 01:36:19;;;;;;;12.85;4.35;;;9.90;99.90;;;;;;5086450;28;20520;-78
2021/12/15 01:38:46;;;;;;;11.88;5.00;;;9.90;99.90;;;;;;5072566;28;20069;-78
2021/12/15 01:41:20;;;;;;;12.65;6.43;;;9.90;99.90;;;;;;5079554;28;20040;-77
2021/12/15 01:46:54;;;;;;;7.55;5.22;;;9.90;99.90;;;;;;5088745;28;20379;-77
2021/12/15 01:46:54;;;;;;;13.70;6.53;;;9.90;99.90;;;;;;5087494;28;20076;-77
2021/12/15 01:49:36;;;;;;;11.05;6.10;;;9.90;99.90;;;;;;5090005;28;20036;-78
2021/12/15 01:52:16;;;;;;;13.68;6.25;;;9.90;99.90;;;;;;5086376;28;20048;-77
2021/12/15 01:54:44;;;;;;;14.13;6.60;;;9.90;99.90;;;;;;5072644;28;20185;-77
2021/12/15 01:57:11;;;;;;;9.82;5.00;;;9.90;99.90;;;;;;5088917;28;20100;-78
2021/12/15 01:59:38;;;;;;;21.77;9.85;;;9.90;99.90;;;;;;5080046;28;20036;-77
2021/12/15 02:02:05;;;;;;;9.38;6.35;;;9.90;99.90;;;;;;5080879;28;20359;-76
2021/12/15 02:04:31;;;;;;;14.05;8.13;;;9.90;99.90;;;;;;5089369;28;20048;-76
2021/12/15 02:06:57;;;;;;;10.52;7.43;;;10.00;99.90;;;;;;5089179;28;20059;-77
2021/12/15 02:10:11;;;;;;;9.93;5.28;;;9.90;99.90;;;;;;5071408;28;20097;-77
2021/12/15 02:12:11;;;;;;;16.63;7.40;;;9.90;99.90;;;;;;5078769;28;20047;-77
2021/12/15 02:14:37;;;;;;;12.65;6.90;;;10.00;99.90;;;;;;5087753;28;20042;-76
2021/12/15 02:17:03;;;;;;;20.90;6.93;;;9.90;99.90;;;;;;5061530;28;20709;-77
2021/12/15 02:19:29;;;;;;;12.60;7.18;;;9.90;99.90;;;;;;5076201;28;20040;-77
2021/12/15 02:21:55;;;;;;;12.00;6.38;;;9.90;99.90;;;;;;5064004;28;20050;-77
2021/12/15 02:24:22;;;;;;;14.90;8.30;;;9.90;99.90;;;;;;5071977;28;20486;-76
2021/12/15 02:26:52;;;;;;;14.05;7.80;;;9.90;99.90;;;;;;5064596;28;20036;-76
2021/12/15 02:29:20;;;;;;;11.30;6.70;;;10.00;99.90;;;;;;5089898;28;20486;-76
2021/12/15 02:39:29;;;;;;;10.75;6.13;;;10.00;99.90;;;;;;5086878;28;20371;-75
2021/12/15 02:41:54;;;;;;;10.73;6.38;;;10.00;99.90;;;;;;5084354;28;20044;-75
2021/12/15 02:44:22;;;;;;;16.70;7.00;;;10.00;99.90;;;;;;5079484;28;20090;-75
2021/12/15 02:46:49;;;;;;;11.63;6.82;;;10.00;99.90;;;;;;5088111;28;20040;-75
2021/12/15 02:49:18;;;;;;;12.73;6.55;;;10.00;99.90;;;;;;5089448;28;20109;-75
2021/12/15 02:51:46;;;;;;;17.75;7.85;;;9.90;99.90;;;;;;5088879;28;20044;-75
2021/12/15 02:54:14;;;;;;;11.80;7.20;;;10.00;99.90;;;;;;5084536;28;20047;-76
2021/12/15 02:56:42;;;;;;;14.57;7.47;;;10.00;99.90;;;;;;5076842;28;20595;-75
2021/12/15 02:59:11;;;;;;;10.45;6.80;;;10.00;99.90;;;;;;5081850;28;20044;-75
2021/12/15 03:04:41;;;;;;;16.70;7.10;;;9.90;99.90;;;;;;5085705;28;20054;-75
2021/12/15 03:17:59;;;;;;;10.05;7.75;;;9.90;99.90;;;;;;5091179;28;20044;-76
2021/12/15 03:20:28;;;;;;;20.33;7.82;;;10.00;99.90;;;;;;5085332;28;20046;-75
2021/12/15 03:22:55;;;;;;;12.77;8.25;;;10.00;99.90;;;;;;5067059;28;20047;-75
2021/12/15 03:25:21;;;;;;;21.00;8.43;;;10.00;99.90;;;;;;5075144;28;20110;-75
2021/12/15 03:35:58;;;;;;;20.42;7.60;;;10.00;99.90;;;;;;5076546;28;20098;-76
2021/12/15 03:38:25;;;;;;;13.07;7.50;;;10.00;99.90;;;;;;5090294;28;20048;-76
2021/12/15 03:40:50;;;;;;;;;;;10.00;99.90;;;;;;5070260;28;20044;-76
2021/12/15 03:43:16;;;;;;;12.13;7.13;;;9.90;99.90;;;;;;5077156;28;19917;-76
2021/12/15 03:45:47;;;;;;;13.82;8.60;;;9.90;99.90;;;;;;5092651;28;20043;-75
2021/12/15 03:48:16;;;;;;;15.02;7.13;;;9.90;99.90;;;;;;5091506;28;20050;-76
2021/12/15 03:50:43;;;;;;;16.40;7.85;;;10.00;99.90;;;;;;5075828;28;20667;-76
2021/12/15 03:53:09;;;;;;;;;;;10.00;99.90;;;;;;5079118;28;20474;-75
2021/12/15 03:55:36;;;;;;;19.50;10.73;;;9.90;99.90;;;;;;5092316;28;20399;-75
2021/12/15 03:58:08;;;;;;;17.58;8.70;;;9.90;99.90;;;;;;5091215;28;20072;-76
2021/12/15 04:00:36;;;;;;;17.63;8.43;;;10.00;99.90;;;;;;5085846;28;20142;-76
2021/12/15 04:03:02;;;;;;;13.52;8.15;;;10.00;99.90;;;;;;5078692;28;20052;-75
2021/12/15 04:05:27;;;;;;;10.32;7.60;;;10.00;99.90;;;;;;5065815;28;20088;-76
2021/12/15 04:07:54;;;;;;;18.45;7.40;;;9.90;99.90;;;;;;5090820;28;20044;-75
2021/12/15 04:10:24;;;;;;;19.45;8.35;;;10.00;99.90;;;;;;5089530;28;20036;-75
2021/12/15 04:12:51;;;;;;;17.90;8.77;;;10.00;99.90;;;;;;5083477;28;20039;-76
2021/12/15 04:15:25;;;;;;;14.18;9.60;;;10.00;99.90;;;;;;5083818;28;20070;-75
2021/12/15 04:17:57;;;;;;;14.23;9.25;;;10.00;99.90;;;;;;5079055;28;20067;-76
2021/12/15 04:20:29;;;;;;;11.95;8.00;;;10.00;99.90;;;;;;5089228;28;20044;-76
2021/12/15 04:22:55;;;;;;;21.40;9.40;;;10.00;99.90;;;;;;5083050;28;20055;-76
2021/12/15 04:25:31;;;;;;;16.38;7.68;;;10.00;99.90;;;;;;5085051;28;20044;-75
2021/12/15 04:28:02;;;;;;;20.75;9.63;;;10.00;99.90;;;;;;5091640;28;20478;-75
2021/12/15 04:30:31;;;;;;;10.65;8.23;;;10.00;99.90;;;;;;5069374;28;20040;-76
2021/12/15 04:32:59;;;;;;;11.35;7.20;;;10.00;99.90;;;;;;5084823;28;20498;-75
2021/12/15 04:35:26;;;;;;;10.43;6.40;;;10.00;99.90;;;;;;5089868;28;20028;-76
2021/12/15 04:37:53;;;;;;;10.52;6.82;;;10.00;99.90;;;;;;5091824;28;20115;-75
2021/12/15 04:40:22;;;;;;;14.00;7.95;;;10.00;99.90;;;;;;5088666;28;20596;-76
2021/12/15 04:42:49;;;;;;;19.00;8.43;;;10.00;99.90;;;;;;5081077;28;20040;-76
2021/12/15 04:45:19;;;;;;;12.63;6.68;;;10.00;99.90;;;;;;5084939;28;20115;-75
2021/12/15 04:47:46;;;;;;;24.15;8.73;;;10.00;99.90;;;;;;5071422;28;20059;-76
2021/12/15 04:50:12;;;;;;;12.00;7.38;;;10.00;99.90;;;;;;5091616;28;20162;-76
2021/12/15 04:52:39;;;;;;;13.88;5.90;;;9.90;99.90;;;;;;5083406;28;20131;-76
2021/12/15 04:55:07;;;;;;;11.93;6.28;;;10.00;99.90;;;;;;5089536;28;20039;-75
2021/12/15 04:57:33;;;;;;;17.55;9.43;;;10.00;99.90;;;;;;5097586;28;20374;-76
2021/12/15 04:59:59;;;;;;;14.57;6.82;;;9.90;99.90;;;;;;5087698;28;20047;-76
2021/12/15 05:02:25;;;;;;;;;;;10.00;99.90;;;;;;5083465;28;20126;-76
2021/12/15 05:04:52;;;;;;;15.70;9.15;;;10.00;99.90;;;;;;5093929;28;20074;-77
2021/12/15 05:07:19;;;;;;;17.38;7.32;;;10.00;99.90;;;;;;5082470;28;20040;-76
2021/12/15 05:09:50;;;;;;;13.90;5.72;;;10.00;99.90;;;;;;5084149;28;20367;-75
2021/12/15 05:12:18;;;;;;;14.07;7.60;;;10.00;99.90;;;;;;5072467;28;20041;-75
2021/12/15 05:14:44;;;;;;;11.77;6.93;;;10.00;99.90;;;;;;5075530;28;20515;-75
2021/12/15 05:17:10;;;;;;;15.50;8.10;;;9.90;99.90;;;;;;5066044;28;20040;-76
2021/12/15 05:19:36;;;;;;;14.40;7.50;;;10.00;99.90;;;;;;5070195;28;20040;-75
2021/12/15 05:22:04;;;;;;;13.25;6.93;;;10.00;99.90;;;;;;5080572;28;20067;-75
2021/12/15 05:24:30;;;;;;;20.58;8.15;;;10.00;99.90;;;;;;5084715;28;20075;-75
2021/12/15 05:27:00;;;;;;;18.02;7.38;;;9.90;99.90;;;;;;5074848;28;20044;-75
2021/12/15 05:29:27;;;;;;;10.48;7.15;;;9.90;99.90;;;;;;5069895;28;20060;-76
2021/12/15 05:31:54;;;;;;;15.43;8.23;;;9.90;99.90;;;;;;5076175;28;20070;-76
2021/12/15 05:34:20;;;;;;;19.77;9.55;;;9.90;99.90;;;;;;5071482;28;21807;-75
2021/12/15 05:36:48;;;;;;;16.88;8.73;;;9.90;99.90;;;;;;5079188;28;20474;-75
2021/12/15 05:39:14;;;;;;;13.63;7.97;;;9.90;99.90;;;;;;5087401;28;20101;-76
2021/12/15 05:41:40;;;;;;;18.10;7.93;;;9.90;99.90;;;;;;5089812;28;20032;-75
2021/12/15 05:44:06;;;;;;;17.00;8.95;;;9.90;99.90;;;;;;5088632;28;20042;-76
2021/12/15 05:46:33;;;;;;;23.95;7.95;;;9.90;99.90;;;;;;5064380;28;20047;-75
2021/12/15 05:48:59;;;;;;;16.02;8.02;;;9.90;99.90;;;;;;5060181;28;20352;-75
2021/12/15 05:51:24;;;;;;;;;;;9.90;99.90;;;;;;5077813;28;20064;-75
2021/12/15 05:53:50;;;;;;;10.27;7.05;;;9.90;99.90;;;;;;5089269;28;19947;-75
2021/12/15 05:56:18;;;;;;;21.77;8.57;;;9.90;99.90;;;;;;5088440;28;20090;-76
2021/12/15 05:58:45;;;;;;;14.60;6.93;;;9.90;99.90;;;;;;5076322;28;20084;-75
2021/12/15 06:01:11;;;;;;;17.63;8.15;;;10.00;99.90;;;;;;5072405;28;20044;-76
2021/12/15 06:03:37;;;;;;;13.48;8.25;;;9.90;99.90;;;;;;5081800;28;20040;-77
2021/12/15 06:06:04;;;;;;;18.17;8.15;;;9.90;99.90;;;;;;5082447;28;20047;-76
2021/12/15 06:08:30;;;;;;;23.83;8.88;;;9.90;99.90;;;;;;5073420;28;20056;-75
2021/12/15 06:10:57;;;;;;;11.23;6.85;;;9.90;99.90;;;;;;5089565;28;20037;-75
2021/12/15 06:13:27;;;;;;;28.23;7.53;;;9.90;99.90;;;;;;5081781;28;20054;-75
2021/12/15 06:15:53;;;;;;;9.52;6.32;;;9.90;99.90;;;;;;5084616;28;20037;-76
2021/12/15 06:18:20;;;;;;;17.90;8.27;;;9.90;99.90;;;;;;5076330;28;20049;-75
2021/12/15 06:20:48;;;;;;;9.95;6.30;;;10.00;99.90;;;;;;5081577;28;20043;-76
2021/12/15 06:23:20;;;;;;;20.00;8.98;;;9.90;99.90;;;;;;5088771;28;20401;-76
2021/12/15 06:25:52;;;;;;;12.85;8.45;;;10.00;99.90;;;;;;5082859;28;20059;-76
2021/12/15 06:28:19;;;;;;;18.67;9.73;;;10.00;99.90;;;;;;5088129;28;20048;-79
2021/12/15 06:30:45;;;;;;;18.02;9.10;;;10.00;99.90;;;;;;5083062;28;20393;-75
2021/12/15 06:33:11;;;;;;;;;;;10.00;99.90;;;;;;5089348;28;20056;-75
2021/12/15 06:35:37;;;;;;;17.35;8.68;;;10.00;99.90;;;;;;5093511;28;19916;-76
2021/12/15 06:38:05;;;;;;;14.73;8.18;;;10.10;99.90;;;;;;5083036;28;20067;-76
2021/12/15 06:40:31;;;;;;;22.40;10.18;;;10.00;99.90;;;;;;5083202;28;20044;-74
2021/12/15 06:42:57;;;;;;;12.65;7.50;;;10.00;99.90;;;;;;5090699;28;20536;-77
2021/12/15 06:45:30;;;;;;;17.05;8.60;;;10.00;99.90;;;;;;5076721;28;20049;-77
2021/12/15 06:58:52;;;;;;;12.43;7.28;;;10.00;99.90;;;;;;5075741;28;21853;-75
2021/12/15 07:01:18;;;;;;;10.50;5.95;;;9.90;99.90;;;;;;5077609;28;20059;-76
2021/12/15 07:03:44;;;;;;;18.77;7.93;;;10.00;99.90;;;;;;5091784;28;20092;-76
2021/12/15 07:06:11;;;;;;;15.10;8.38;;;10.00;99.90;;;;;;5066405;28;20051;-77
2021/12/15 07:08:37;;;;;;;13.05;6.25;;;10.10;99.90;;;;;;5084503;28;20055;-75
2021/12/15 07:11:04;;;;;;;10.52;5.95;;;10.10;99.90;;;;;;5091772;28;20036;-75
2021/12/15 07:13:30;;;;;;;10.98;6.35;;;10.10;99.90;;;;;;5076066;28;20036;-75
2021/12/15 07:16:03;;;;;;;8.98;5.75;;;10.00;99.90;;;;;;5084288;28;20043;-77
2021/12/15 07:18:44;;;;;;;11.68;5.97;;;10.00;99.90;;;;;;5076017;28;20052;-79
2021/12/15 07:21:22;;;;;;;12.45;6.80;;;10.10;99.90;;;;;;5087943;28;20120;-79
2021/12/15 07:23:50;;;;;;;17.63;7.13;;;10.00;99.90;;;;;;5086931;28;20059;-77
2021/12/15 07:26:15;;;;;;;10.52;6.25;;;10.10;99.90;;;;;;5082950;28;20436;-77
2021/12/15 07:28:41;;;;;;;11.20;6.25;;;10.10;99.90;;;;;;5074995;28;20043;-77
2021/12/15 07:31:09;;;;;;;27.50;10.20;;;10.10;99.90;;;;;;5090645;28;20401;-75
2021/12/15 07:33:35;;;;;;;11.60;7.00;;;10.10;99.90;;;;;;5102533;28;20051;-76
2021/12/15 07:36:01;;;;;;;14.85;6.75;;;10.10;99.90;;;;;;5074835;28;20578;-76
2021/12/15 07:38:28;;;;;;;7.70;4.80;;;10.10;99.90;;;;;;5062761;28;20040;-78
2021/12/15 07:40:54;;;;;;;13.38;5.85;;;10.10;99.90;;;;;;5073516;28;20039;-78
2021/12/15 07:43:29;;;;;;;;;;;10.10;99.90;;;;;;5086023;28;20496;-76
2021/12/15 07:46:00;;;;;;;11.65;7.13;;;10.10;99.90;;;;;;5067464;28;20050;-78
2021/12/15 07:48:30;;;;;;;14.27;6.57;;;10.10;99.90;;;;;;5071973;28;20044;-76
2021/12/15 07:50:59;;;;;;;21.83;8.38;;;10.10;99.90;;;;;;5072332;28;20050;-77
2021/12/15 07:53:25;;;;;;;16.58;7.63;;;10.10;99.90;;;;;;5084130;28;20047;-76
2021/12/15 07:55:52;;;;;;;11.23;6.70;;;10.10;99.90;;;;;;5085759;28;20040;-76
2021/12/15 07:58:18;;;;;;;10.50;5.88;;;10.10;99.90;;;;;;5078497;28;20063;-77
2021/12/15 08:00:44;;;;;;;;;;;10.10;99.90;;;;;;5070181;28;20044;-78
2021/12/15 08:03:11;;;;;;;8.88;5.68;;;10.20;99.90;;;;;;5061850;28;19924;-78
2021/12/15 08:05:38;;;;;;;12.35;8.32;;;10.10;99.90;;;;;;5078345;28;20084;-78
2021/12/15 08:08:05;;;;;;;8.95;5.22;;;10.20;99.90;;;;;;5053892;28;20071;-81
2021/12/15 08:10:32;;;;;;;15.63;7.60;;;10.10;99.90;;;;;;5082756;28;20658;-81
2021/12/15 08:12:58;;;;;;;16.33;5.78;;;10.20;99.90;;;;;;5057211;28;20040;-80
2021/12/15 08:15:24;;;;;;;15.18;5.82;;;10.20;99.90;;;;;;5083469;28;20036;-79
2021/12/15 08:17:52;;;;;;;8.27;5.85;;;10.10;99.90;;;;;;5105879;28;20078;-80
2021/12/15 08:20:20;;;;;;;7.55;6.40;;;10.10;99.90;;;;;;5072639;28;20055;-77
2021/12/15 08:22:47;;;;;;;8.65;6.13;;;10.10;99.90;;;;;;5061310;28;20677;-79
2021/12/15 08:25:15;;;;;;;6.43;4.38;;;10.10;99.90;;;;;;5078175;28;20044;-79
2021/12/15 08:27:42;;;;;;;15.50;6.35;;;10.10;99.90;;;;;;5052020;28;20036;-78
2021/12/15 08:30:12;;;;;;;9.32;4.28;;;10.10;99.90;;;;;;5091601;28;20177;-77
2021/12/15 08:32:39;;;;;;;7.25;4.68;;;10.00;99.90;;;;;;5061921;28;20517;-77
2021/12/15 08:35:06;;;;;;;6.45;5.50;;;10.00;99.90;;;;;;5083631;28;20053;-76
2021/12/15 08:37:32;;;;;;;11.90;5.53;;;10.00;99.90;;;;;;5082395;28;20566;-79
2021/12/15 08:39:58;;;;;;;17.08;4.38;;;10.00;99.90;;;;;;5084814;28;20033;-79
2021/12/15 08:42:24;;;;;;;6.70;4.20;;;10.00;99.90;;;;;;5051257;28;20062;-77
2021/12/15 08:44:50;;;;;;;;;;;10.00;99.90;;;;;;5088406;28;20044;-80
2021/12/15 08:47:16;;;;;;;5.10;3.80;;;9.90;99.90;;;;;;5091738;28;19924;-77
2021/12/15 08:49:42;;;;;;;23.02;6.00;;;9.90;99.90;;;;;;5105882;28;20138;-82
2021/12/15 08:52:08;;;;;;;11.93;4.97;;;9.90;99.90;;;;;;5054433;28;20115;-79
2021/12/15 08:54:34;;;;;;;10.80;5.60;;;9.90;99.90;;;;;;5081133;28;20047;-80
2021/12/15 08:57:00;;;;;;;;;;;10.00;99.90;;;;;;5063582;28;20035;-83
2021/12/15 08:59:27;;;;;;;12.05;5.63;;;9.90;99.90;;;;;;5066547;28;19916;-80
2021/12/15 09:01:53;;;;;;;8.93;4.22;;;9.90;99.90;;;;;;5093361;28;20043;-81
2021/12/15 09:04:19;;;;;;;9.18;4.95;;;10.00;99.90;;;;;;5063772;28;20437;-79
2021/12/15 09:06:46;;;;;;;;;;;10.00;99.90;;;;;;5076086;28;20048;-79
2021/12/15 09:09:13;;;;;;;17.73;6.35;;;10.10;99.90;;;;;;5082969;28;19924;-76
2021/12/15 09:11:39;;;;;;;7.70;4.97;;;10.10;99.90;;;;;;5082811;28;20082;-76
2021/12/15 09:14:07;;;;;;;9.88;4.95;;;10.10;99.90;;;;;;5083977;28;20127;-75
2021/12/15 09:16:35;;;;;;;14.15;6.43;;;10.10;99.90;;;;;;5083413;28;20040;-76
2021/12/15 09:19:02;;;;;;;10.35;4.25;;;10.10;99.90;;;;;;5089726;28;20083;-76
2021/12/15 09:21:31;;;;;;;11.80;4.10;;;10.10;99.90;;;;;;5089890;28;20458;-76
2021/12/15 09:23:59;;;;;;;6.50;5.20;;;10.10;99.90;;;;;;5085440;28;20466;-76
2021/12/15 09:26:26;;;;;;;12.93;4.38;;;10.20;99.90;;;;;;5071544;28;20127;-75
2021/12/15 09:28:52;;;;;;;6.85;3.90;;;10.20;99.90;;;;;;5071652;28;20051;-76
2021/12/15 09:31:19;;;;;;;11.73;4.15;;;10.20;99.90;;;;;;5083610;28;20083;-78
2021/12/15 09:33:48;;;;;;;12.95;4.75;;;10.30;99.90;;;;;;5053439;28;20461;-78
2021/12/15 09:36:16;;;;;;;11.02;4.93;;;10.30;99.90;;;;;;5087123;28;20052;-78
2021/12/15 09:38:45;;;;;;;7.82;4.88;;;10.30;99.90;;;;;;5082398;28;20082;-79
2021/12/15 09:41:14;;;;;;;9.13;5.03;;;10.30;99.90;;;;;;5060009;28;20040;-76
2021/12/15 09:43:42;;;;;;;12.75;5.88;;;10.40;99.90;;;;;;5076435;28;20515;-78
2021/12/15 09:46:13;;;;;;;7.43;4.18;;;10.40;99.90;;;;;;5071589;28;20696;-80
2021/12/15 09:57:16;;;;;;;6.65;4.25;;;10.50;99.90;;;;;;5084728;28;20090;-76
2021/12/15 10:02:40;;;;;;;7.85;4.47;;;10.50;99.90;;;;;;5090965;28;20083;-79
2021/12/15 10:19:27;;;;;;;12.90;4.03;;;10.50;99.90;;;;;;5077061;28;20045;-81
2021/12/15 10:22:12;;;;;;;5.32;3.25;;;10.50;99.90;;;;;;5043785;28;20048;-75
2021/12/15 10:25:19;;;;;;;10.57;3.83;;;10.60;99.90;;;;;;5087670;28;20040;-77
2021/12/15 10:28:05;;;;;;;3.53;2.67;;;10.60;99.90;;;;;;5056514;28;20097;-79
2021/12/15 10:30:38;;;;;;;5.70;3.70;;;10.60;99.90;;;;;;5086508;28;20040;-78
2021/12/15 10:33:30;;;;;;;3.50;2.58;;;10.60;99.90;;;;;;5071726;28;20055;-77
2021/12/15 10:36:01;;;;;;;5.18;2.72;;;10.70;99.90;;;;;;5072813;28;20055;-81
2021/12/15 10:38:46;;;;;;;5.70;3.60;;;10.60;99.90;;;;;;5061540;28;20036;-78
2021/12/15 10:41:19;;;;;;;8.85;3.10;;;10.60;99.90;;;;;;5084628;28;20060;-77
2021/12/15 10:43:50;;;;;;;6.53;2.88;;;10.60;99.90;;;;;;5083331;28;20489;-77
2021/12/15 10:46:18;;;;;;;8.68;4.10;;;10.60;99.90;;;;;;5078197;28;20521;-83
2021/12/15 10:48:59;;;;;;;10.32;4.97;;;10.60;99.90;;;;;;5061937;28;20082;-80
2021/12/15 10:51:27;;;;;;;6.35;2.78;;;10.60;99.90;;;;;;5065897;28;20043;-79
2021/12/15 10:53:56;;;;;;;4.32;3.13;;;10.60;99.90;;;;;;5064871;28;20063;-78
2021/12/15 10:56:26;;;;;;;6.18;4.20;;;10.60;99.90;;;;;;5066159;28;20040;-78
2021/12/15 10:58:57;;;;;;;6.47;4.38;;;10.60;99.90;;;;;;5079102;28;20060;-78
2021/12/15 11:01:49;;;;;;;8.48;3.30;;;10.60;99.90;;;;;;5090970;28;20130;-81
2021/12/15 11:04:27;;;;;;;7.38;3.05;;;10.70;99.90;;;;;;5078852;28;20102;-79
2021/12/15 11:07:10;;;;;;;7.05;3.65;;;10.70;99.90;;;;;;5064511;28;20040;-78
2021/12/15 11:09:44;;;;;;;5.95;3.83;;;10.70;99.90;;;;;;5054871;28;20134;-81
2021/12/15 11:12:40;;;;;;;13.02;4.75;;;10.70;99.90;;;;;;5091315;28;20040;-83
2021/12/15 11:15:28;;;;;;;6.40;3.67;;;10.70;99.90;;;;;;5074030;28;20070;-80
2021/12/15 11:18:10;;;;;;;4.57;3.10;;;10.70;99.90;;;;;;5068199;28;20048;-84
2021/12/15 11:20:39;;;;;;;11.10;5.43;;;10.80;99.90;;;;;;5069072;28;20098;-81
2021/12/15 11:23:13;;;;;;;9.25;3.30;;;10.80;99.90;;;;;;5075575;28;20642;-81
2021/12/15 11:25:59;;;;;;;10.35;3.65;;;10.80;99.90;;;;;;5071663;28;20051;-81
2021/12/15 11:29:10;;;;;;;5.15;2.72;;;10.80;99.90;;;;;;5085298;28;20075;-82
2021/12/15 11:31:40;;;;;;;3.22;2.75;;;10.80;99.90;;;;;;5088508;28;20159;-83
2021/12/15 11:34:08;;;;;;;5.00;3.15;;;10.80;99.90;;;;;;5038860;28;20090;-83
2021/12/15 11:36:42;;;;;;;4.85;3.28;;;11.30;99.90;;;;;;5068313;28;20037;-81
2021/12/15 11:39:28;;;;;;;7.85;3.10;;;10.80;99.90;;;;;;5086574;28;20119;-83
2021/12/15 11:45:54;;;;;;;13.93;2.83;;;10.90;99.90;;;;;;5090165;28;20489;-80
2021/12/15 11:48:24;;;;;;;3.00;2.72;;;10.90;99.90;;;;;;5058487;28;20040;-78
2021/12/15 11:51:02;;;;;;;8.57;2.53;;;10.90;99.90;;;;;;5077371;28;20039;-79
2021/12/15 11:53:28;;;;;;;9.48;2.95;;;10.80;99.90;;;;;;5068607;28;20044;-79
2021/12/15 11:56:32;;;;;;;6.82;2.92;;;10.80;99.90;;;;;;5073814;28;20378;-82
2021/12/15 11:59:13;;;;;;;5.50;2.83;;;10.90;99.90;;;;;;5076026;28;20139;-78
2021/12/15 12:01:45;;;;;;;3.88;2.78;;;10.90;99.90;;;;;;5084295;28;20052;-79
2021/12/15 12:04:40;;;;;;;2.85;2.10;;;11.00;99.90;;;;;;5106188;28;20136;-78
2021/12/15 12:07:12;;;;;;;4.35;1.75;;;11.00;99.90;;;;;;5058653;28;20052;-79
2021/12/15 12:09:40;;;;;;;9.05;1.85;;;11.00;99.90;;;;;;5079546;28;20039;-81
2021/12/15 12:12:07;;;;;;;5.75;2.28;;;11.00;99.90;;;;;;5072638;28;20119;-79
2021/12/15 12:14:51;;;;;;;4.57;2.08;;;10.90;99.90;;;;;;5048082;28;20067;-81
2021/12/15 12:17:25;;;;;;;3.50;1.70;;;10.90;99.90;;;;;;5083419;28;20075;-81
2021/12/15 12:20:01;;;;;;;3.22;1.80;;;10.80;99.90;;;;;;5097643;28;20389;-78
2021/12/15 12:22:34;;;;;;;6.63;1.95;;;10.80;99.90;;;;;;5057670;28;20480;-79
2021/12/15 12:25:04;;;;;;;2.15;1.65;;;10.70;99.90;;;;;;5058459;28;20043;-80
2021/12/15 12:27:32;;;;;;;4.93;2.40;;;10.70;99.90;;;;;;5059475;28;20044;-80
2021/12/15 12:30:02;;;;;;;3.15;1.88;;;10.60;99.90;;;;;;5066215;28;20100;-80
2021/12/15 12:32:34;;;;;;;2.50;1.38;;;10.60;99.90;;;;;;5086859;28;20143;-81
2021/12/15 12:35:00;;;;;;;1.67;1.45;;;10.60;99.90;;;;;;5072393;28;20123;-79
2021/12/15 12:37:26;;;;;;;2.70;1.65;;;10.50;99.90;;;;;;5054178;28;20131;-79
2021/12/15 12:39:56;;;;;;;;;;;10.50;99.90;;;;;;5047345;28;20074;-80
2021/12/15 12:42:34;;;;;;;2.45;1.75;;;10.50;99.90;;;;;;5079283;28;19977;-80
2021/12/15 12:45:16;;;;;;;2.38;1.55;;;10.50;99.90;;;;;;5067347;28;20821;-80
2021/12/15 13:01:12;;;;;;;1.02;0.98;;;10.40;99.90;;;;;;5089056;28;20496;-81
2021/12/15 13:03:45;;;;;;;1.20;0.95;;;10.30;99.90;;;;;;5068045;28;20109;-79
2021/12/15 13:06:13;;;;;;;1.65;1.20;;;10.20;99.90;;;;;;5076780;28;20492;-76
2021/12/15 13:08:45;;;;;;;1.25;0.90;;;10.10;99.90;;;;;;5093163;28;20483;-80
2021/12/15 13:11:21;;;;;;;3.47;1.20;;;10.00;99.90;;;;;;5093558;28;20036;-82
2021/12/15 13:13:56;;;;;;;3.05;1.15;;;10.00;99.90;;;;;;5089227;28;20036;-78
2021/12/15 13:16:29;;;;;;;1.88;1.20;;;9.90;99.90;;;;;;5087988;28;20036;-82
2021/12/15 13:19:00;;;;;;;0.75;0.70;;;9.80;99.90;;;;;;5078896;28;20457;-80
2021/12/15 13:21:46;;;;;;;1.75;1.23;;;9.70;99.90;;;;;;5065526;28;20032;-78
2021/12/15 13:30:38;;;;;;;2.42;1.27;;;9.70;99.90;;;;;;5084943;28;20044;-81
2021/12/15 13:33:13;;;;;;;1.13;0.85;;;9.70;99.90;;;;;;5073093;28;20056;-80
2021/12/15 13:35:47;;;;;;;2.28;1.67;;;9.70;99.90;;;;;;5080672;28;20047;-83
2021/12/15 13:38:17;;;;;;;1.30;1.20;;;9.70;99.90;;;;;;5080802;28;20048;-79
2021/12/15 13:40:54;;;;;;;1.45;1.35;;;9.80;99.90;;;;;;5082612;28;20435;-79
2021/12/15 13:43:38;;;;;;;1.48;0.82;;;9.70;99.90;;;;;;5077140;28;20040;-80
2021/12/15 13:46:08;;;;;;;1.40;1.10;;;9.80;99.90;;;;;;5084854;28;20056;-80
2021/12/15 13:48:58;;;;;;;0.82;0.80;;;9.70;99.90;;;;;;5081272;28;20055;-83
2021/12/15 13:51:52;;;;;;;1.00;0.90;;;9.70;99.90;;;;;;5079462;28;20393;-80
2021/12/15 13:54:33;;;;;;;1.77;1.60;;;9.70;99.90;;;;;;5068237;28;20032;-80
2021/12/15 13:57:12;;;;;;;2.05;1.02;;;9.90;99.90;;;;;;5065258;28;20048;-78
2021/12/15 13:59:54;;;;;;;1.67;1.15;;;9.90;99.90;;;;;;5056435;28;20491;-77
2021/12/15 14:02:26;;;;;;;2.75;1.10;;;10.10;99.90;;;;;;5083819;28;20086;-80
2021/12/15 14:05:16;;;;;;;1.35;0.98;;;10.10;99.90;;;;;;5070602;28;20084;-81
2021/12/15 14:07:46;;;;;;;1.25;1.15;;;10.20;99.90;;;;;;5059343;28;20044;-78
2021/12/15 14:10:12;;;;;;;1.48;1.05;;;10.30;99.90;;;;;;5058530;28;20427;-73
2021/12/15 14:12:47;;;;;;;2.25;1.40;;;10.40;99.90;;;;;;5068313;28;20049;-78
2021/12/15 14:15:25;;;;;;;5.10;0.75;;;10.50;99.90;;;;;;5075816;28;20090;-81
2021/12/15 14:18:01;;;;;;;0.90;0.70;;;10.50;99.90;;;;;;5082986;28;20125;-75
2021/12/15 14:20:29;;;;;;;0.65;0.65;;;10.40;99.90;;;;;;5075591;28;20033;-74
2021/12/15 14:23:07;;;;;;;7.13;1.30;;;10.10;99.90;;;;;;5086004;28;20687;-77
2021/12/15 14:25:35;;;;;;;5.03;1.45;;;10.00;99.90;;;;;;5068779;28;20799;-77
2021/12/15 14:28:10;;;;;;;1.17;1.00;;;9.80;99.90;;;;;;5071881;28;20215;-78
2021/12/15 14:30:38;;;;;;;1.52;1.10;;;9.60;99.90;;;;;;5082630;28;20044;-78
2021/12/15 14:33:16;;;;;;;1.42;1.33;;;9.50;99.90;;;;;;5082351;28;20067;-77
2021/12/15 14:35:42;;;;;;;1.73;0.98;;;9.40;99.90;;;;;;5077488;28;20056;-78
2021/12/15 14:38:07;;;;;;;1.33;1.15;;;9.40;99.90;;;;;;5071010;28;20044;-81
2021/12/15 14:40:33;;;;;;;2.67;1.55;;;9.30;99.90;;;;;;5071347;28;20048;-76
2021/12/15 14:42:59;;;;;;;1.13;1.02;;;9.30;99.90;;;;;;5064134;28;20402;-81
2021/12/15 14:45:26;;;;;;;1.17;1.08;;;9.20;99.90;;;;;;5054913;28;20043;-76